Time;durP1;ratioP1;P1;durP2;ratioP2;P2;SDS_P1;SDS_P2;PMS_P1;PMS_P2;Temp;Humidity;BMP_temperature;BMP_pressure;BME280_temperature;BME280_humidity;BME280_pressure;Samples;Min_cycle;Max_cycle;Signal;HPM_P1;HPM_P2
2021/05/26 00:01:45;;;;;;;1.37;1.27;;;9.80;99.90;;;;;;5111873;28;20214;-75
2021/05/26 00:04:12;;;;;;;2.50;2.30;;;9.80;99.90;;;;;;5111767;28;20537;-75
2021/05/26 00:06:38;;;;;;;1.30;1.20;;;9.80;99.90;;;;;;5111876;28;20307;-75
2021/05/26 00:09:04;;;;;;;1.30;1.03;;;9.80;99.90;;;;;;5111884;28;20441;-76
2021/05/26 00:11:29;;;;;;;1.70;0.93;;;9.80;99.90;;;;;;5092347;28;20777;-76
2021/05/26 00:13:55;;;;;;;1.40;1.20;;;9.70;99.90;;;;;;5091449;28;20537;-76
2021/05/26 00:16:22;;;;;;;2.17;1.00;;;9.70;99.90;;;;;;5091171;28;20181;-74
2021/05/26 00:18:48;;;;;;;2.20;1.37;;;9.70;99.90;;;;;;5091152;28;20213;-75
2021/05/26 00:21:13;;;;;;;2.10;1.17;;;9.60;99.90;;;;;;5091142;28;20488;-75
2021/05/26 00:23:39;;;;;;;1.87;1.20;;;9.60;99.90;;;;;;5091256;28;20184;-75
2021/05/26 00:26:05;;;;;;;1.00;0.90;;;9.60;99.90;;;;;;5091478;28;20248;-75
2021/05/26 00:28:31;;;;;;;1.87;1.00;;;9.50;99.90;;;;;;5091793;28;20438;-75
2021/05/26 00:30:58;;;;;;;0.90;0.90;;;9.50;99.90;;;;;;5099292;28;20906;-75
2021/05/26 00:33:24;;;;;;;2.83;1.30;;;9.50;99.90;;;;;;5090693;28;20189;-74
2021/05/26 00:35:50;;;;;;;1.50;1.40;;;9.50;99.90;;;;;;5089849;28;20450;-75
2021/05/26 00:38:16;;;;;;;1.77;1.20;;;9.50;99.90;;;;;;5090680;28;20162;-75
2021/05/26 00:40:42;;;;;;;1.33;1.23;;;9.50;99.90;;;;;;5094435;28;20162;-74
2021/05/26 00:43:08;;;;;;;1.83;1.47;;;9.60;99.90;;;;;;5094562;28;20859;-74
2021/05/26 00:45:34;;;;;;;1.03;0.93;;;9.60;99.90;;;;;;5094500;28;20406;-75
2021/05/26 00:48:00;;;;;;;2.20;1.20;;;9.60;99.90;;;;;;5094064;28;20418;-74
2021/05/26 00:50:33;;;;;;;1.20;1.10;;;9.60;99.90;;;;;;5092935;28;20197;-75
2021/05/26 00:53:01;;;;;;;1.00;0.90;;;9.70;99.90;;;;;;5094212;28;20198;-74
2021/05/26 00:55:27;;;;;;;1.93;1.20;;;9.60;99.90;;;;;;5094248;28;20396;-74
2021/05/26 00:57:53;;;;;;;1.60;1.00;;;9.60;99.90;;;;;;5093984;28;20424;-75
2021/05/26 01:00:21;;;;;;;4.87;1.90;;;9.60;99.90;;;;;;5094088;28;20430;-74
2021/05/26 01:02:47;;;;;;;1.60;1.50;;;9.60;99.90;;;;;;5094117;28;20177;-74
2021/05/26 01:05:13;;;;;;;1.17;1.07;;;9.60;99.90;;;;;;5092529;28;20786;-74
2021/05/26 01:07:40;;;;;;;3.83;1.50;;;9.60;99.90;;;;;;5073672;28;20404;-74
2021/05/26 01:10:08;;;;;;;2.03;1.20;;;9.60;99.90;;;;;;5072471;28;20442;-76
2021/05/26 01:12:33;;;;;;;1.00;0.90;;;9.60;99.90;;;;;;5073555;28;20532;-75
2021/05/26 01:15:00;;;;;;;1.37;1.27;;;9.60;99.90;;;;;;5073571;28;20495;-75
2021/05/26 01:17:26;;;;;;;1.00;0.90;;;9.60;99.90;;;;;;5073295;28;20163;-74
2021/05/26 01:19:52;;;;;;;3.40;1.27;;;9.70;99.90;;;;;;5073511;28;20510;-75
2021/05/26 01:22:17;;;;;;;1.10;1.00;;;9.70;99.90;;;;;;5077512;28;20501;-74
2021/05/26 01:24:43;;;;;;;1.10;1.00;;;9.70;99.90;;;;;;5093908;28;20197;-75
2021/05/26 01:27:08;;;;;;;1.73;1.10;;;9.70;99.90;;;;;;5093432;28;20170;-75
2021/05/26 01:29:34;;;;;;;4.07;3.60;;;9.70;99.90;;;;;;5091934;28;20185;-74
2021/05/26 01:32:00;;;;;;;1.30;1.20;;;9.70;99.90;;;;;;5093158;28;20709;-75
2021/05/26 01:34:26;;;;;;;1.60;1.50;;;9.70;99.90;;;;;;5086449;28;20182;-75
2021/05/26 01:36:51;;;;;;;1.23;1.13;;;9.70;99.90;;;;;;5088610;28;20411;-74
2021/05/26 01:39:18;;;;;;;2.00;1.30;;;9.70;99.90;;;;;;5091812;28;20190;-74
2021/05/26 01:41:44;;;;;;;1.20;1.10;;;9.70;99.90;;;;;;5093410;28;20162;-75
2021/05/26 01:44:10;;;;;;;1.27;1.17;;;9.70;99.90;;;;;;5092347;28;20468;-74
2021/05/26 01:46:40;;;;;;;1.30;1.20;;;9.70;99.90;;;;;;5093079;28;20399;-75
2021/05/26 01:49:06;;;;;;;1.87;1.50;;;9.70;99.90;;;;;;5093077;28;20185;-75
2021/05/26 01:51:33;;;;;;;1.17;1.07;;;9.70;99.90;;;;;;5104198;28;20786;-74
2021/05/26 01:53:59;;;;;;;1.40;1.30;;;9.70;99.90;;;;;;5113368;28;20531;-74
2021/05/26 01:56:26;;;;;;;1.30;1.20;;;9.70;99.90;;;;;;5111299;28;20940;-74
2021/05/26 01:58:54;;;;;;;1.40;1.30;;;9.70;99.90;;;;;;5092740;28;20197;-74
2021/05/26 02:01:21;;;;;;;1.67;1.17;;;9.70;99.90;;;;;;5092757;28;20453;-74
2021/05/26 02:03:49;;;;;;;2.50;1.27;;;9.70;99.90;;;;;;5092130;28;20951;-74
2021/05/26 02:06:16;;;;;;;1.73;1.47;;;9.70;99.90;;;;;;5082254;28;20420;-74
2021/05/26 02:08:44;;;;;;;1.40;1.30;;;9.70;99.90;;;;;;5072425;28;20473;-74
2021/05/26 02:13:59;;;;;;;2.20;1.50;;;9.70;99.90;;;;;;5091116;28;20461;-74
2021/05/26 02:16:24;;;;;;;2.77;1.40;;;9.70;99.90;;;;;;5092337;28;20906;-73
2021/05/26 02:18:50;;;;;;;1.53;1.30;;;9.70;99.90;;;;;;5092473;28;20474;-75
2021/05/26 02:21:15;;;;;;;2.07;1.27;;;9.70;99.90;;;;;;5087480;28;20199;-75
2021/05/26 02:23:41;;;;;;;1.53;1.20;;;9.70;99.90;;;;;;5088307;28;20175;-73
2021/05/26 02:26:06;;;;;;;3.03;1.30;;;9.70;99.90;;;;;;5091945;28;20255;-74
2021/05/26 02:28:32;;;;;;;1.50;1.40;;;9.70;99.90;;;;;;5090792;28;20215;-73
2021/05/26 02:30:57;;;;;;;1.27;1.13;;;9.70;99.90;;;;;;5092288;28;20166;-74
2021/05/26 02:33:23;;;;;;;1.20;1.10;;;9.70;99.90;;;;;;5091940;28;20186;-74
2021/05/26 02:35:48;;;;;;;1.10;1.00;;;9.70;99.90;;;;;;5092545;28;20551;-74
2021/05/26 02:38:14;;;;;;;2.70;1.20;;;9.70;99.90;;;;;;5091528;28;20551;-75
2021/05/26 02:40:39;;;;;;;1.77;1.10;;;9.70;99.90;;;;;;5092178;28;20170;-74
2021/05/26 02:43:05;;;;;;;2.13;1.67;;;9.70;99.90;;;;;;5092172;28;20621;-74
2021/05/26 02:45:31;;;;;;;4.40;1.23;;;9.70;99.90;;;;;;5092092;28;20178;-73
2021/05/26 02:47:57;;;;;;;1.40;1.30;;;9.70;99.90;;;;;;5091687;28;20249;-73
2021/05/26 02:50:23;;;;;;;3.23;1.40;;;9.70;99.90;;;;;;5094220;28;20434;-73
2021/05/26 02:52:52;;;;;;;1.33;1.23;;;9.70;99.90;;;;;;5112637;28;20454;-74
2021/05/26 02:55:19;;;;;;;2.97;1.30;;;9.70;99.90;;;;;;5112321;28;20166;-73
2021/05/26 02:57:45;;;;;;;3.10;1.37;;;9.70;99.90;;;;;;5112044;28;20412;-74
2021/05/26 03:00:12;;;;;;;1.57;1.40;;;9.70;99.90;;;;;;5111889;28;20480;-74
2021/05/26 03:02:38;;;;;;;1.17;1.07;;;9.70;99.90;;;;;;5110945;28;20201;-74
2021/05/26 03:05:05;;;;;;;2.13;1.60;;;9.70;99.90;;;;;;5112029;28;20954;-74
2021/05/26 03:07:31;;;;;;;2.30;1.53;;;9.70;99.90;;;;;;5091588;28;20199;-73
2021/05/26 03:09:56;;;;;;;1.47;1.30;;;9.70;99.90;;;;;;5096046;28;20435;-73
2021/05/26 03:12:22;;;;;;;1.43;1.23;;;9.70;99.90;;;;;;5103358;28;20546;-73
2021/05/26 03:14:47;;;;;;;3.17;1.70;;;9.70;99.90;;;;;;5108332;28;20173;-73
2021/05/26 03:17:13;;;;;;;2.13;1.20;;;9.70;99.90;;;;;;5086620;28;20667;-74
2021/05/26 03:19:39;;;;;;;3.13;2.80;;;9.70;99.90;;;;;;5091620;28;20194;-74
2021/05/26 03:22:05;;;;;;;2.10;1.50;;;9.80;99.90;;;;;;5091481;28;20223;-74
2021/05/26 03:24:30;;;;;;;1.83;1.40;;;9.80;99.90;;;;;;5091499;28;20486;-74
2021/05/26 03:26:56;;;;;;;5.07;1.53;;;9.80;99.90;;;;;;5091448;28;20158;-74
2021/05/26 03:29:21;;;;;;;1.63;1.33;;;9.80;99.90;;;;;;5091523;28;20678;-73
2021/05/26 03:31:47;;;;;;;4.40;1.60;;;9.80;99.90;;;;;;5090253;28;20169;-73
2021/05/26 03:34:13;;;;;;;1.77;1.43;;;9.90;99.90;;;;;;5091236;28;20191;-75
2021/05/26 03:36:39;;;;;;;3.30;1.67;;;9.90;99.90;;;;;;5083403;28;20170;-73
2021/05/26 03:39:06;;;;;;;2.37;1.63;;;9.90;99.90;;;;;;5085647;28;20784;-73
2021/05/26 03:41:31;;;;;;;2.23;1.27;;;9.90;99.90;;;;;;5090878;28;20453;-73
2021/05/26 03:43:56;;;;;;;1.93;1.30;;;9.90;99.90;;;;;;5091271;28;20404;-73
2021/05/26 03:46:22;;;;;;;1.60;1.40;;;9.90;99.90;;;;;;5090838;28;20165;-73
2021/05/26 03:48:47;;;;;;;2.23;1.70;;;9.90;99.90;;;;;;5091253;28;20189;-74
2021/05/26 03:51:13;;;;;;;2.07;1.50;;;10.00;99.90;;;;;;5091338;28;20210;-74
2021/05/26 03:53:38;;;;;;;2.53;1.60;;;10.00;99.90;;;;;;5089991;28;20248;-74
2021/05/26 03:56:04;;;;;;;2.60;1.20;;;10.00;99.90;;;;;;5093613;28;20536;-74
2021/05/26 03:58:30;;;;;;;1.90;1.30;;;10.00;99.90;;;;;;5108970;28;20209;-74
2021/05/26 04:00:55;;;;;;;2.03;1.80;;;10.00;99.90;;;;;;5111466;28;20632;-74
2021/05/26 04:03:21;;;;;;;4.13;2.30;;;10.00;99.90;;;;;;5111634;28;20169;-74
2021/05/26 04:05:46;;;;;;;2.47;1.40;;;10.10;99.90;;;;;;5111501;28;20586;-73
2021/05/26 04:08:12;;;;;;;2.27;1.23;;;10.10;99.90;;;;;;5110982;28;20417;-74
2021/05/26 04:10:38;;;;;;;1.50;1.40;;;10.20;99.90;;;;;;5100298;28;20712;-74
2021/05/26 04:13:03;;;;;;;2.60;1.73;;;10.30;99.90;;;;;;5091007;28;20220;-73
2021/05/26 04:15:29;;;;;;;2.07;1.70;;;10.40;99.90;;;;;;5094384;28;20250;-73
2021/05/26 04:17:54;;;;;;;2.53;1.30;;;10.50;99.90;;;;;;5094662;28;20633;-73
2021/05/26 04:20:20;;;;;;;1.57;1.47;;;10.60;99.90;;;;;;5094801;28;20197;-74
2021/05/26 04:22:45;;;;;;;2.20;1.57;;;10.60;99.90;;;;;;5094811;28;20598;-74
2021/05/26 04:25:11;;;;;;;2.03;1.83;;;10.60;99.90;;;;;;5094925;28;20187;-74
2021/05/26 04:27:36;;;;;;;1.63;1.33;;;10.60;99.90;;;;;;5093385;28;20173;-74
2021/05/26 04:30:04;;;;;;;2.07;1.97;;;10.50;99.90;;;;;;5094671;28;20706;-74
2021/05/26 04:32:29;;;;;;;1.57;1.20;;;10.50;99.90;;;;;;5094469;28;20279;-74
2021/05/26 04:34:55;;;;;;;1.47;1.27;;;10.50;99.90;;;;;;5094808;28;20435;-74
2021/05/26 04:37:20;;;;;;;3.07;1.67;;;10.50;99.90;;;;;;5094388;28;20682;-74
2021/05/26 04:39:46;;;;;;;2.00;1.83;;;10.60;99.90;;;;;;5094827;28;20260;-74
2021/05/26 04:42:12;;;;;;;1.97;1.60;;;10.70;99.90;;;;;;5094540;28;20234;-74
2021/05/26 04:44:37;;;;;;;2.13;1.80;;;10.70;99.90;;;;;;5094535;28;20645;-73
2021/05/26 04:47:03;;;;;;;3.63;1.63;;;10.80;99.90;;;;;;5094207;28;20165;-75
2021/05/26 04:49:29;;;;;;;2.50;1.77;;;10.90;99.90;;;;;;5094483;28;20189;-74
2021/05/26 04:51:54;;;;;;;1.73;1.60;;;11.10;99.90;;;;;;5094270;28;20431;-74
2021/05/26 04:54:20;;;;;;;1.47;1.37;;;11.40;99.90;;;;;;5094405;28;20204;-74
2021/05/26 04:56:45;;;;;;;2.43;2.23;;;11.40;99.90;;;;;;5094053;28;20170;-74
2021/05/26 04:59:12;;;;;;;4.00;1.90;;;11.70;99.90;;;;;;5093941;28;20208;-74
2021/05/26 05:01:38;;;;;;;3.43;1.70;;;11.80;99.90;;;;;;5094010;28;20154;-73
2021/05/26 05:04:04;;;;;;;1.60;1.50;;;11.90;99.90;;;;;;5094024;28;20415;-74
2021/05/26 05:06:30;;;;;;;2.90;1.57;;;11.80;99.90;;;;;;5093719;28;20404;-74
2021/05/26 05:08:55;;;;;;;2.40;1.77;;;11.80;99.90;;;;;;5094052;28;20568;-74
2021/05/26 05:11:21;;;;;;;2.50;1.60;;;11.70;99.90;;;;;;5101853;28;20655;-74
2021/05/26 05:13:47;;;;;;;1.73;1.63;;;11.70;99.90;;;;;;5114217;28;20925;-74
2021/05/26 05:16:12;;;;;;;1.93;1.70;;;11.70;99.90;;;;;;5115033;27;20164;-73
2021/05/26 05:18:38;;;;;;;2.47;1.87;;;11.70;99.90;;;;;;5112907;28;20777;-74
2021/05/26 05:21:04;;;;;;;2.77;1.80;;;11.60;99.90;;;;;;5112902;28;20165;-74
2021/05/26 05:23:29;;;;;;;2.03;1.47;;;11.70;99.90;;;;;;5114492;28;20173;-74
2021/05/26 05:25:55;;;;;;;2.10;2.00;;;11.90;99.90;;;;;;5113295;28;20188;-74
2021/05/26 05:28:20;;;;;;;3.93;1.70;;;12.40;99.90;;;;;;5113912;28;20176;-74
2021/05/26 05:30:46;;;;;;;2.60;1.40;;;12.40;99.90;;;;;;5114094;28;20175;-74
2021/05/26 05:33:11;;;;;;;4.40;1.73;;;12.90;99.90;;;;;;5113888;28;20224;-74
2021/05/26 05:35:37;;;;;;;2.00;1.73;;;12.70;99.90;;;;;;5111049;28;20238;-74
2021/05/26 05:38:02;;;;;;;2.50;1.80;;;12.50;99.90;;;;;;5093252;28;20637;-74
2021/05/26 05:40:28;;;;;;;3.77;1.90;;;12.40;99.90;;;;;;5092225;28;20230;-74
2021/05/26 05:42:53;;;;;;;3.83;1.90;;;12.50;99.90;;;;;;5093218;28;20169;-74
2021/05/26 05:45:19;;;;;;;4.57;1.70;;;12.30;99.90;;;;;;5093410;28;20259;-74
2021/05/26 05:47:44;;;;;;;4.50;1.80;;;12.30;99.90;;;;;;5093078;28;20641;-74
2021/05/26 05:50:15;;;;;;;2.83;1.50;;;12.20;99.90;;;;;;5093064;28;20200;-76
2021/05/26 05:52:48;;;;;;;2.70;1.50;;;12.30;99.90;;;;;;5093595;28;20668;-74
2021/05/26 05:55:14;;;;;;;1.60;1.50;;;12.60;99.90;;;;;;5093199;28;20410;-73
2021/05/26 05:57:40;;;;;;;3.07;1.53;;;12.70;99.90;;;;;;5092521;28;20462;-74
2021/05/26 06:00:07;;;;;;;3.17;2.07;;;12.60;99.90;;;;;;5092858;28;20416;-73
2021/05/26 06:02:33;;;;;;;4.50;2.67;;;12.80;99.90;;;;;;5092767;28;20249;-74
2021/05/26 06:04:58;;;;;;;2.13;1.93;;;12.70;99.90;;;;;;5092817;28;20866;-74
2021/05/26 06:07:24;;;;;;;3.03;2.03;;;12.30;99.90;;;;;;5087554;28;20180;-74
2021/05/26 06:09:51;;;;;;;3.20;1.60;;;12.20;99.90;;;;;;5075302;28;20730;-74
2021/05/26 06:12:17;;;;;;;2.50;1.77;;;12.40;99.90;;;;;;5074799;28;20277;-74
2021/05/26 06:14:43;;;;;;;2.20;1.43;;;12.50;99.90;;;;;;5092686;28;20406;-74
2021/05/26 06:17:08;;;;;;;3.43;1.60;;;12.50;99.90;;;;;;5092265;28;20486;-74
2021/05/26 06:19:34;;;;;;;3.30;1.80;;;12.80;99.90;;;;;;5092479;28;20196;-74
2021/05/26 06:21:59;;;;;;;1.97;1.60;;;12.50;99.90;;;;;;5092704;28;20161;-74
2021/05/26 06:24:25;;;;;;;3.07;1.70;;;12.30;99.90;;;;;;5089911;28;20169;-75
2021/05/26 06:26:50;;;;;;;4.37;2.10;;;12.30;99.90;;;;;;5103994;28;20165;-74
2021/05/26 06:29:16;;;;;;;3.93;1.90;;;12.30;99.90;;;;;;5112720;28;20185;-74
2021/05/26 06:31:41;;;;;;;2.50;2.30;;;12.30;99.90;;;;;;5112598;28;20169;-74
2021/05/26 06:34:07;;;;;;;2.10;1.90;;;12.30;99.90;;;;;;5112419;28;20338;-73
2021/05/26 06:36:36;;;;;;;4.23;2.00;;;12.40;99.90;;;;;;5112399;28;20173;-75
2021/05/26 06:39:03;;;;;;;2.03;1.47;;;13.10;99.90;;;;;;5112770;28;20181;-74
2021/05/26 06:41:29;;;;;;;1.73;1.63;;;13.50;99.90;;;;;;5112548;28;20491;-74
2021/05/26 06:43:55;;;;;;;2.60;1.67;;;14.30;99.90;;;;;;5112521;28;20403;-74
2021/05/26 06:46:20;;;;;;;2.13;1.40;;;13.90;99.90;;;;;;5112438;28;20923;-74
2021/05/26 06:48:46;;;;;;;1.80;1.37;;;13.80;99.90;;;;;;5112415;28;20214;-74
2021/05/26 06:51:12;;;;;;;3.80;1.97;;;14.00;99.90;;;;;;5112494;28;20240;-74
2021/05/26 06:53:37;;;;;;;1.70;1.60;;;13.70;99.90;;;;;;5112416;28;20235;-74
2021/05/26 06:56:03;;;;;;;5.17;1.60;;;13.70;99.90;;;;;;5112443;28;20402;-74
2021/05/26 06:58:28;;;;;;;2.37;1.90;;;13.60;99.90;;;;;;5112998;28;20212;-74
2021/05/26 07:00:54;;;;;;;2.70;2.00;;;13.70;99.90;;;;;;5112328;28;20612;-74
2021/05/26 07:03:19;;;;;;;3.33;2.17;;;13.90;99.90;;;;;;5112122;28;20168;-74
2021/05/26 07:05:45;;;;;;;3.30;1.50;;;13.50;99.90;;;;;;5112427;28;20208;-74
2021/05/26 07:08:10;;;;;;;2.13;1.67;;;13.60;99.90;;;;;;5095514;28;20181;-74
2021/05/26 07:10:38;;;;;;;1.40;1.30;;;14.10;99.90;;;;;;5099834;28;20185;-73
2021/05/26 07:13:03;;;;;;;1.87;1.37;;;14.00;99.90;;;;;;5106223;28;20245;-74
2021/05/26 07:15:29;;;;;;;2.60;2.20;;;13.90;99.90;;;;;;5112350;28;20394;-74
2021/05/26 07:17:56;;;;;;;3.30;2.03;;;14.30;99.90;;;;;;5111843;28;20264;-75
2021/05/26 07:20:22;;;;;;;2.93;1.67;;;14.20;99.90;;;;;;5099854;28;20660;-74
2021/05/26 07:22:47;;;;;;;4.23;1.80;;;14.40;99.90;;;;;;5094685;28;20468;-73
2021/05/26 07:25:13;;;;;;;4.17;1.73;;;14.10;99.90;;;;;;5092413;28;20421;-74
2021/05/26 07:27:38;;;;;;;5.83;1.90;;;14.40;99.90;;;;;;5071223;28;20179;-74
2021/05/26 07:30:05;;;;;;;5.50;2.10;;;14.20;99.90;;;;;;5073205;28;20576;-74
2021/05/26 07:32:30;;;;;;;2.57;2.37;;;14.50;99.90;;;;;;5071150;28;20201;-70
2021/05/26 07:34:56;;;;;;;2.47;1.77;;;14.30;99.90;;;;;;5072423;28;20892;-75
2021/05/26 07:37:21;;;;;;;2.00;1.50;;;15.20;99.90;;;;;;5073358;28;20176;-76
2021/05/26 07:39:47;;;;;;;1.93;1.53;;;15.90;99.90;;;;;;5071346;28;20689;-74
2021/05/26 07:42:14;;;;;;;2.87;1.20;;;16.80;99.90;;;;;;5070675;28;20175;-75
2021/05/26 07:44:40;;;;;;;1.93;1.50;;;17.60;99.90;;;;;;5071145;28;20307;-75
2021/05/26 07:47:06;;;;;;;2.47;1.63;;;17.00;99.90;;;;;;5071155;28;20471;-74
2021/05/26 07:49:31;;;;;;;3.20;1.63;;;16.70;99.90;;;;;;5073174;28;20485;-73
2021/05/26 07:52:03;;;;;;;3.00;1.50;;;17.10;99.90;;;;;;5087844;28;20170;-73
2021/05/26 07:54:29;;;;;;;2.93;1.60;;;16.50;99.90;;;;;;5092082;28;20200;-73
2021/05/26 07:56:56;;;;;;;2.53;1.77;;;16.40;99.90;;;;;;5095332;28;20500;-73
2021/05/26 07:59:22;;;;;;;4.20;1.50;;;16.30;99.90;;;;;;5084353;28;20457;-72
2021/05/26 08:01:47;;;;;;;3.63;1.77;;;17.20;99.90;;;;;;5076366;28;20414;-73
2021/05/26 08:04:13;;;;;;;3.53;1.50;;;17.40;99.90;;;;;;5080188;28;20162;-74
2021/05/26 08:06:38;;;;;;;2.60;1.97;;;17.20;99.90;;;;;;5088164;28;20204;-73
2021/05/26 08:09:04;;;;;;;1.90;1.33;;;16.70;99.90;;;;;;5115757;28;20200;-73
2021/05/26 08:11:30;;;;;;;2.93;1.40;;;16.60;99.90;;;;;;5097149;28;20268;-73
2021/05/26 08:13:57;;;;;;;3.53;2.07;;;16.50;99.90;;;;;;5094318;28;20451;-73
2021/05/26 08:16:23;;;;;;;2.27;1.30;;;16.30;99.90;;;;;;5089059;28;20423;-73
2021/05/26 08:18:49;;;;;;;1.93;1.60;;;16.10;99.90;;;;;;5073689;28;20436;-74
2021/05/26 08:21:15;;;;;;;1.80;1.60;;;15.70;99.90;;;;;;5083811;28;20460;-73
2021/05/26 08:23:41;;;;;;;2.37;1.60;;;15.30;99.90;;;;;;5082928;28;20688;-74
2021/05/26 08:26:11;;;;;;;3.87;1.90;;;15.10;99.90;;;;;;5074741;28;20438;-74
2021/05/26 08:28:37;;;;;;;2.43;1.43;;;15.30;99.90;;;;;;5078156;28;20186;-73
2021/05/26 08:31:02;;;;;;;2.23;1.50;;;15.40;99.90;;;;;;5095021;28;20416;-74
2021/05/26 08:33:28;;;;;;;2.33;2.13;;;15.30;99.90;;;;;;5095211;28;20282;-74
2021/05/26 08:35:53;;;;;;;1.80;1.70;;;15.30;99.90;;;;;;5108078;28;20162;-73
2021/05/26 08:38:19;;;;;;;1.60;1.50;;;15.40;99.90;;;;;;5115661;28;20576;-74
2021/05/26 08:40:44;;;;;;;2.30;2.10;;;15.40;99.90;;;;;;5103297;28;20191;-73
2021/05/26 08:43:17;;;;;;;3.60;2.20;;;15.20;99.90;;;;;;5095050;28;20174;-74
2021/05/26 08:45:44;;;;;;;2.90;1.57;;;15.30;99.90;;;;;;5095128;28;20170;-74
2021/05/26 08:48:15;;;;;;;1.77;1.67;;;15.60;99.90;;;;;;5094810;28;20427;-74
2021/05/26 08:50:49;;;;;;;1.70;1.60;;;15.50;99.90;;;;;;5095505;28;20397;-74
2021/05/26 08:53:45;;;;;;;3.83;1.43;;;15.70;99.90;;;;;;5087958;28;20865;-74
2021/05/26 08:56:11;;;;;;;5.30;2.20;;;15.90;99.90;;;;;;5102716;28;20424;-74
2021/05/26 08:58:44;;;;;;;2.40;1.60;;;16.60;99.90;;;;;;5093410;28;20990;-74
2021/05/26 09:01:12;;;;;;;2.33;1.27;;;16.60;99.90;;;;;;5094489;28;20172;-74
2021/05/26 09:03:38;;;;;;;3.37;1.63;;;17.00;99.90;;;;;;5094697;28;20460;-74
2021/05/26 09:06:11;;;;;;;2.80;1.67;;;17.30;99.90;;;;;;5094305;28;20400;-74
2021/05/26 09:08:49;;;;;;;3.90;1.50;;;17.50;99.90;;;;;;5094414;28;20234;-73
2021/05/26 09:11:15;;;;;;;1.93;1.20;;;17.50;99.90;;;;;;5109973;28;20408;-74
2021/05/26 09:13:43;;;;;;;3.20;1.43;;;18.30;99.90;;;;;;5105441;28;20448;-74
2021/05/26 09:16:24;;;;;;;2.50;1.80;;;17.80;99.90;;;;;;5074161;28;20403;-74
2021/05/26 09:19:00;;;;;;;2.87;1.40;;;17.30;99.90;;;;;;5074443;28;20456;-73
2021/05/26 09:21:45;;;;;;;2.03;1.47;;;16.80;99.90;;;;;;5076914;28;20462;-74
2021/05/26 09:24:19;;;;;;;2.27;1.80;;;16.70;99.90;;;;;;5094373;28;20410;-73
2021/05/26 09:26:52;;;;;;;4.23;1.60;;;16.40;99.90;;;;;;5094219;28;20897;-74
2021/05/26 09:29:24;;;;;;;3.50;2.00;;;16.10;99.90;;;;;;5091784;28;20459;-74
2021/05/26 09:31:53;;;;;;;2.03;1.50;;;16.10;99.90;;;;;;5080801;28;20423;-74
2021/05/26 09:34:36;;;;;;;2.57;1.50;;;15.90;99.90;;;;;;5073677;28;20455;-74
2021/05/26 09:37:05;;;;;;;3.90;2.83;;;16.00;99.90;;;;;;5089215;28;20455;-74
2021/05/26 09:39:55;;;;;;;1.80;1.20;;;16.30;99.90;;;;;;5073345;28;20419;-74
2021/05/26 09:42:28;;;;;;;2.23;1.20;;;15.80;99.90;;;;;;5073204;28;20401;-74
2021/05/26 09:45:15;;;;;;;2.50;1.10;;;15.80;99.90;;;;;;5073623;28;20864;-75
2021/05/26 09:47:42;;;;;;;2.53;1.73;;;15.60;99.90;;;;;;5076336;28;20434;-74
2021/05/26 09:50:23;;;;;;;2.87;1.80;;;15.80;99.90;;;;;;5093156;28;20929;-74
2021/05/26 09:53:11;;;;;;;2.73;1.80;;;16.00;99.90;;;;;;5092725;28;20490;-75
2021/05/26 09:55:39;;;;;;;1.60;1.20;;;16.20;99.90;;;;;;5113722;28;20465;-74
2021/05/26 09:58:08;;;;;;;2.97;1.50;;;16.20;99.90;;;;;;5113078;28;20418;-73
2021/05/26 10:00:36;;;;;;;3.80;1.43;;;15.90;99.90;;;;;;5098930;28;20421;-75
2021/05/26 10:03:01;;;;;;;1.63;1.17;;;15.70;99.90;;;;;;5093161;28;20926;-74
2021/05/26 10:05:27;;;;;;;3.83;1.73;;;15.60;99.90;;;;;;5083337;28;20414;-74
2021/05/26 10:07:55;;;;;;;3.03;1.60;;;15.60;99.90;;;;;;5072347;28;20646;-75
2021/05/26 10:10:22;;;;;;;2.93;1.40;;;15.60;99.90;;;;;;5081991;28;20225;-74
2021/05/26 10:12:55;;;;;;;4.13;1.80;;;15.60;99.90;;;;;;5077153;28;20821;-75
2021/05/26 10:15:23;;;;;;;1.50;1.23;;;16.00;99.90;;;;;;5082554;28;20417;-74
2021/05/26 10:17:54;;;;;;;2.30;1.50;;;16.30;99.90;;;;;;5072391;28;20406;-74
2021/05/26 10:20:25;;;;;;;2.70;1.30;;;16.60;99.90;;;;;;5079718;28;20548;-74
2021/05/26 10:22:52;;;;;;;2.80;1.13;;;16.60;99.90;;;;;;5078731;28;20430;-74
2021/05/26 10:25:19;;;;;;;1.30;1.20;;;16.10;99.90;;;;;;5107687;28;20409;-74
2021/05/26 10:27:56;;;;;;;2.00;1.20;;;15.80;99.90;;;;;;5094793;28;20506;-74
2021/05/26 10:30:27;;;;;;;3.83;1.30;;;16.20;99.90;;;;;;5106371;28;20527;-75
2021/05/26 10:33:00;;;;;;;1.37;1.10;;;16.30;99.90;;;;;;5112762;28;20497;-74
2021/05/26 10:35:28;;;;;;;1.40;1.20;;;16.00;99.90;;;;;;5113019;28;20576;-73
2021/05/26 10:37:59;;;;;;;3.30;1.13;;;15.90;99.90;;;;;;5112597;28;20482;-74
2021/05/26 10:40:34;;;;;;;4.83;1.30;;;15.80;99.90;;;;;;5078860;28;20841;-75
2021/05/26 10:43:21;;;;;;;3.07;1.57;;;15.70;99.90;;;;;;5071863;28;20425;-74
2021/05/26 10:45:49;;;;;;;2.17;1.60;;;16.10;99.90;;;;;;5072113;28;20413;-74
2021/05/26 10:48:43;;;;;;;3.93;1.40;;;16.20;99.90;;;;;;5070522;28;20408;-74
2021/05/26 10:51:11;;;;;;;2.90;2.00;;;16.50;99.90;;;;;;5090125;28;20477;-74
2021/05/26 10:53:45;;;;;;;1.70;1.30;;;16.10;99.90;;;;;;5092391;28;20597;-74
2021/05/26 10:56:37;;;;;;;3.33;1.60;;;15.90;99.90;;;;;;5090633;28;20544;-74
2021/05/26 10:59:13;;;;;;;3.60;1.47;;;16.40;99.90;;;;;;5079720;28;20452;-74
2021/05/26 11:02:04;;;;;;;5.30;1.50;;;16.60;99.90;;;;;;5084051;28;20413;-75
2021/05/26 11:04:33;;;;;;;1.97;1.57;;;17.00;99.90;;;;;;5091451;28;20457;-74
2021/05/26 11:07:24;;;;;;;5.30;1.50;;;17.30;99.90;;;;;;5091952;28;21013;-73
2021/05/26 11:10:00;;;;;;;3.23;2.20;;;17.30;99.90;;;;;;5087492;28;20422;-73
2021/05/26 11:12:47;;;;;;;4.27;2.10;;;16.90;99.90;;;;;;5071781;28;20405;-74
2021/05/26 11:15:43;;;;;;;2.83;1.50;;;17.10;99.90;;;;;;5060960;28;20842;-74
2021/05/26 11:18:12;;;;;;;3.30;1.40;;;16.90;99.90;;;;;;5071255;28;20399;-74
2021/05/26 11:20:38;;;;;;;10.27;1.83;;;17.00;99.90;;;;;;5071525;28;20757;-75
2021/05/26 11:23:12;;;;;;;3.60;1.93;;;17.00;99.90;;;;;;5087410;28;20405;-74
2021/05/26 11:25:38;;;;;;;2.87;1.43;;;17.00;99.90;;;;;;5091869;28;20181;-73
2021/05/26 11:28:04;;;;;;;6.43;1.50;;;17.00;99.90;;;;;;5091645;28;20405;-74
2021/05/26 11:30:29;;;;;;;4.60;2.33;;;16.90;99.90;;;;;;5104103;28;20459;-74
2021/05/26 11:32:55;;;;;;;1.57;1.40;;;17.20;99.90;;;;;;5091409;28;20273;-74
2021/05/26 11:35:21;;;;;;;3.20;1.20;;;17.70;99.90;;;;;;5087800;28;20170;-74
2021/05/26 11:37:47;;;;;;;3.07;1.50;;;17.70;99.90;;;;;;5073134;28;20442;-74
2021/05/26 11:40:23;;;;;;;1.80;1.07;;;17.70;99.90;;;;;;5079103;28;20461;-75
2021/05/26 11:42:50;;;;;;;4.13;1.53;;;17.30;99.90;;;;;;5091489;28;20175;-74
2021/05/26 11:45:15;;;;;;;1.80;1.00;;;17.10;99.90;;;;;;5078491;28;20411;-75
2021/05/26 11:47:45;;;;;;;2.10;1.47;;;17.30;99.90;;;;;;5071102;28;20461;-74
2021/05/26 11:50:13;;;;;;;3.73;1.63;;;17.40;99.90;;;;;;5071375;28;20242;-74
2021/05/26 11:52:40;;;;;;;1.53;1.10;;;17.70;99.90;;;;;;5081476;28;20446;-73
2021/05/26 11:55:06;;;;;;;1.57;1.07;;;18.00;99.90;;;;;;5091753;28;20399;-74
2021/05/26 11:57:39;;;;;;;1.67;0.90;;;18.20;99.90;;;;;;5091367;28;20425;-73
2021/05/26 12:00:06;;;;;;;1.67;1.43;;;18.10;99.90;;;;;;5083320;28;20968;-72
2021/05/26 12:02:32;;;;;;;1.47;1.20;;;18.00;99.90;;;;;;5071119;28;20432;-73
2021/05/26 12:04:58;;;;;;;1.43;1.20;;;17.90;99.90;;;;;;5084045;28;20432;-73
2021/05/26 12:07:24;;;;;;;1.50;1.00;;;17.60;99.90;;;;;;5077211;28;20256;-72
2021/05/26 12:09:59;;;;;;;5.13;1.93;;;17.40;99.90;;;;;;5083114;28;20682;-72
2021/05/26 12:12:25;;;;;;;2.20;1.23;;;17.30;99.90;;;;;;5070867;28;20488;-72
2021/05/26 12:14:52;;;;;;;1.20;1.10;;;17.30;99.90;;;;;;5071392;28;20560;-71
2021/05/26 12:17:22;;;;;;;2.83;0.90;;;17.30;99.90;;;;;;5070775;28;20160;-73
2021/05/26 12:19:50;;;;;;;1.57;1.13;;;17.40;99.90;;;;;;5071170;28;20426;-73
2021/05/26 12:22:18;;;;;;;3.30;1.00;;;17.50;99.90;;;;;;5071333;28;20415;-73
2021/05/26 12:25:00;;;;;;;2.30;1.33;;;17.30;99.90;;;;;;5080806;28;20431;-72
2021/05/26 12:27:32;;;;;;;0.90;0.80;;;17.00;99.90;;;;;;5091042;28;20412;-73
2021/05/26 12:30:21;;;;;;;1.30;0.93;;;16.80;99.90;;;;;;5088763;28;20794;-73
2021/05/26 12:32:48;;;;;;;1.07;0.70;;;17.40;99.90;;;;;;5091031;28;20467;-72
2021/05/26 12:35:21;;;;;;;2.90;0.83;;;17.30;99.90;;;;;;5092238;28;20477;-73
2021/05/26 12:37:56;;;;;;;1.07;0.97;;;17.10;99.90;;;;;;5094734;28;20421;-72
2021/05/26 12:40:25;;;;;;;2.80;1.10;;;17.30;99.90;;;;;;5094872;28;20911;-71
2021/05/26 12:42:50;;;;;;;1.37;0.80;;;17.00;99.90;;;;;;5094772;28;20899;-72
2021/05/26 12:45:25;;;;;;;1.00;0.90;;;17.00;99.90;;;;;;5094736;28;20445;-72
2021/05/26 12:47:51;;;;;;;1.83;1.10;;;17.40;99.90;;;;;;5089286;28;20170;-72
2021/05/26 12:50:20;;;;;;;1.60;0.73;;;17.70;99.90;;;;;;5094714;28;20911;-72
2021/05/26 12:52:49;;;;;;;1.10;0.73;;;17.80;99.90;;;;;;5091686;28;20450;-73
2021/05/26 12:55:15;;;;;;;1.30;0.70;;;17.80;99.90;;;;;;5095256;28;20487;-73
2021/05/26 12:57:42;;;;;;;1.63;0.90;;;17.90;99.90;;;;;;5080718;28;20471;-72